Aporé Airstrip

BR-0035 · Mato Grosso do Sul, Brazil

METAR history BR-0035 · Aporé Airstrip

Below you see METARs of the last few days. Select a year to browse through older METARs, from the year 2007 onwards.

May 26, 2024

Time Code Weather Temp. Visibility Ceiling Wind METAR/SPECI
18:00
I
19 °C 5 km 500 ft 120° 120° 4 kt METAR SBAU 262200Z 12004KT 5000 -RA BR BKN005 BKN030 OVC090 19/17 Q1019
17:06
M
19 °C 5 km 3,000 ft 100° 100° 4 kt METAR SBAU 262106Z 10004KT 5000 -RA BR SCT005 BKN030 OVC090 19/17 Q1019
09:00
M
19 °C 5 km 9,000 ft 060° 060° 8 kt METAR SBAU 261300Z 06008KT 5000 -TSRA BR FEW010 SCT020 FEW050CB OVC090 19/16 Q1021
08:09
M
19 °C 5 km 9,000 ft 030° 030° 10 kt METAR SBAU 261209Z 03010KT 5000 -RA BR FEW010 SCT020 OVC090 19/16 Q1020

May 24, 2024

Time Code Weather Temp. Visibility Ceiling Wind METAR/SPECI
19:00
V
23 °C 10 km+ - 260° 260° 2 kt METAR SBAU 242300Z 26002KT 9999 FEW010 SCT020 23/18 Q1017
18:00
V
24 °C 10 km+ - 270° 270° 4 kt METAR SBAU 242200Z 27004KT 9999 SCT020 24/18 Q1016
17:00
V
25 °C 10 km+ - 280° 280° 6 kt METAR SBAU 242100Z 28006KT CAVOK 25/17 Q1015
09:00
V
27 °C 10 km+ - 270° 270° 6 kt METAR SBAU 241300Z 27006KT CAVOK 27/16 Q1018
Report a change